createdAt,value
2023-03-31T00:01:52.745Z,1.98
2023-03-31T00:04:24.027Z,2.30
2023-03-31T00:06:54.251Z,2.15
2023-03-31T00:09:22.023Z,2.25
2023-03-31T00:11:49.951Z,2.72
2023-03-31T00:14:17.955Z,1.90
2023-03-31T00:16:45.324Z,2.20
2023-03-31T00:19:18.340Z,4.22
2023-03-31T00:21:45.747Z,2.83
2023-03-31T00:24:12.796Z,2.17
2023-03-31T00:26:39.488Z,2.10
2023-03-31T00:29:07.598Z,1.52
2023-03-31T00:31:34.551Z,1.77
2023-03-31T00:34:00.991Z,2.17
2023-03-31T00:36:27.687Z,1.90
2023-03-31T00:38:59.847Z,1.85
2023-03-31T00:41:29.457Z,1.83
2023-03-31T00:44:13.476Z,2.40
2023-03-31T00:46:54.664Z,2.10
2023-03-31T00:49:34.353Z,2.28
2023-03-31T00:52:07.469Z,1.88
2023-03-31T00:54:36.450Z,2.03
2023-03-31T00:57:06.725Z,2.00
2023-03-31T00:59:38.648Z,2.50
2023-03-31T01:02:05.722Z,2.13
2023-03-31T01:04:37.897Z,2.60
2023-03-31T01:07:19.650Z,2.55
2023-03-31T01:09:47.387Z,2.88
2023-03-31T01:12:17.726Z,2.67
2023-03-31T01:14:44.357Z,3.05
2023-03-31T01:17:11.955Z,3.15
2023-03-31T01:19:47.332Z,3.80
2023-03-31T01:22:52.928Z,4.00
2023-03-31T01:25:45.551Z,3.20
2023-03-31T01:28:28.606Z,2.70
2023-03-31T01:31:32.554Z,3.60
2023-03-31T01:34:28.773Z,2.63
2023-03-31T01:37:33.073Z,2.60
2023-03-31T01:40:04.684Z,2.65
2023-03-31T01:43:08.167Z,3.03
2023-03-31T01:46:24.338Z,2.20
2023-03-31T01:48:59.337Z,2.47
2023-03-31T01:52:04.443Z,2.75
2023-03-31T01:54:53.361Z,2.85
2023-03-31T01:57:33.296Z,2.72
2023-03-31T02:00:09.488Z,2.55
2023-03-31T02:02:57.706Z,2.40
2023-03-31T02:05:30.356Z,2.55
2023-03-31T02:08:02.936Z,3.00
2023-03-31T02:10:31.405Z,2.45
2023-03-31T02:13:01.455Z,2.65
2023-03-31T02:15:33.439Z,2.28
2023-03-31T02:18:06.162Z,2.50
2023-03-31T02:20:33.710Z,2.30
2023-03-31T02:23:00.696Z,2.40
2023-03-31T02:25:36.522Z,2.80
2023-03-31T02:28:12.543Z,2.70
2023-03-31T02:30:53.045Z,3.10
2023-03-31T02:33:19.592Z,2.78
2023-03-31T02:35:46.125Z,3.00
2023-03-31T02:38:12.696Z,2.42
2023-03-31T02:40:39.129Z,2.60
2023-03-31T02:43:05.711Z,2.45
2023-03-31T02:45:37.956Z,3.05
2023-03-31T02:48:07.280Z,2.95
2023-03-31T02:51:01.770Z,4.68
2023-03-31T02:53:47.289Z,3.72
2023-03-31T02:56:44.292Z,2.92
2023-03-31T02:59:13.950Z,3.25
2023-03-31T03:01:52.971Z,2.78
2023-03-31T03:04:37.280Z,2.67
2023-03-31T03:07:13.301Z,2.58
2023-03-31T03:09:55.227Z,2.78
2023-03-31T03:12:47.614Z,2.95
2023-03-31T03:15:21.602Z,2.67
2023-03-31T03:17:49.872Z,3.17
2023-03-31T03:20:20.166Z,2.88
2023-03-31T03:22:46.577Z,3.00
2023-03-31T03:25:15.007Z,3.00
2023-03-31T03:27:41.476Z,2.83
2023-03-31T03:30:11.228Z,3.08
2023-03-31T03:32:37.968Z,3.00
2023-03-31T03:35:06.096Z,2.85
2023-03-31T03:37:32.931Z,3.00
2023-03-31T03:39:59.382Z,3.15
2023-03-31T03:42:25.856Z,2.80
2023-03-31T03:44:52.313Z,3.03
2023-03-31T03:47:18.816Z,3.28
2023-03-31T03:49:45.252Z,2.80
2023-03-31T03:52:11.766Z,2.88
2023-03-31T03:54:38.172Z,2.97
2023-03-31T03:57:04.621Z,2.78
2023-03-31T03:59:31.176Z,3.15
2023-03-31T04:01:57.623Z,2.45
2023-03-31T04:04:24.386Z,2.70
2023-03-31T04:06:50.835Z,2.60
2023-03-31T04:09:17.318Z,3.20
2023-03-31T04:11:43.828Z,3.15
2023-03-31T04:14:10.295Z,2.75
2023-03-31T04:16:38.372Z,2.95
2023-03-31T04:19:05.157Z,3.20
2023-03-31T04:21:34.841Z,2.88
2023-03-31T04:24:04.589Z,2.70
2023-03-31T04:26:42.782Z,2.58
2023-03-31T04:29:16.393Z,3.30
2023-03-31T04:31:44.065Z,3.13
2023-03-31T04:34:15.106Z,2.90
2023-03-31T04:36:47.998Z,2.50
2023-03-31T04:39:17.022Z,2.90
2023-03-31T04:41:44.020Z,2.85
2023-03-31T04:44:10.776Z,2.58
2023-03-31T04:46:37.452Z,3.05
2023-03-31T04:49:05.653Z,2.95
2023-03-31T04:51:32.134Z,3.20
2023-03-31T04:53:58.598Z,2.72
2023-03-31T04:56:25.756Z,3.15
2023-03-31T04:58:52.171Z,2.90
2023-03-31T05:01:20.835Z,2.95
2023-03-31T05:03:47.983Z,3.05
2023-03-31T05:06:16.192Z,3.17
2023-03-31T05:08:43.497Z,3.15
2023-03-31T05:11:10.014Z,2.90
2023-03-31T05:13:36.524Z,3.00
2023-03-31T05:16:10.799Z,2.88
2023-03-31T05:18:37.294Z,3.00
2023-03-31T05:21:15.514Z,2.60
2023-03-31T05:23:42.802Z,3.45
2023-03-31T05:26:09.387Z,3.25
2023-03-31T05:28:36.690Z,2.83
2023-03-31T05:31:04.755Z,3.08
2023-03-31T05:33:32.192Z,3.53
2023-03-31T05:36:01.847Z,3.03
2023-03-31T05:38:29.248Z,3.65
2023-03-31T05:40:56.127Z,3.17
2023-03-31T05:43:22.632Z,3.03
2023-03-31T05:45:49.725Z,2.95
2023-03-31T05:48:16.181Z,3.53
2023-03-31T05:50:43.046Z,3.10
2023-03-31T05:53:09.690Z,3.20
2023-03-31T05:55:36.951Z,2.80
2023-03-31T05:58:03.524Z,3.25
2023-03-31T06:00:29.995Z,3.08
2023-03-31T06:02:56.667Z,2.80
2023-03-31T06:05:26.462Z,2.40
2023-03-31T06:07:53.732Z,2.83
2023-03-31T06:10:20.547Z,2.45
2023-03-31T06:12:47.014Z,2.13
2023-03-31T06:15:13.605Z,1.92
2023-03-31T06:17:40.059Z,2.55
2023-03-31T06:20:16.402Z,2.30
2023-03-31T06:25:19.703Z,3.05
2023-03-31T06:27:46.197Z,3.67
2023-03-31T06:30:13.239Z,2.15
2023-03-31T06:32:39.724Z,1.48
2023-03-31T06:35:06.649Z,1.30
2023-03-31T06:37:33.114Z,1.02
2023-03-31T06:39:59.523Z,0.90
2023-03-31T06:42:26.132Z,0.90
2023-03-31T06:44:52.587Z,0.80
2023-03-31T06:47:19.138Z,0.70
2023-03-31T06:49:46.143Z,0.70
2023-03-31T06:52:12.649Z,0.70
2023-03-31T06:54:39.138Z,0.50
2023-03-31T06:57:05.805Z,0.60
2023-03-31T06:59:32.248Z,0.60
2023-03-31T07:01:58.856Z,0.50
2023-03-31T07:04:25.390Z,0.57
2023-03-31T07:06:51.819Z,0.50
2023-03-31T07:09:18.710Z,0.93
2023-03-31T07:11:45.272Z,0.60
2023-03-31T07:14:11.904Z,0.77
2023-03-31T07:16:38.565Z,1.75
2023-03-31T07:19:06.634Z,1.33
2023-03-31T07:21:33.082Z,1.40
2023-03-31T07:23:59.718Z,1.35
2023-03-31T07:26:27.047Z,1.58
2023-03-31T07:28:56.615Z,1.15
2023-03-31T07:31:23.658Z,1.10
2023-03-31T07:33:50.941Z,1.02
2023-03-31T07:38:46.714Z,0.90
2023-03-31T07:41:15.223Z,0.98
2023-03-31T07:43:42.066Z,1.00
2023-03-31T07:46:18.333Z,0.95
2023-03-31T07:48:46.618Z,1.48
2023-03-31T07:51:18.414Z,2.92
2023-03-31T07:53:45.585Z,2.35
2023-03-31T07:56:13.032Z,0.90
2023-03-31T07:58:39.536Z,0.80
2023-03-31T08:01:06.452Z,0.80
2023-03-31T08:03:34.395Z,0.80
2023-03-31T08:06:01.021Z,0.80
2023-03-31T08:08:27.440Z,0.82
2023-03-31T08:10:53.926Z,1.02
2023-03-31T08:13:20.426Z,1.00
2023-03-31T08:15:46.860Z,1.13
2023-03-31T08:18:13.422Z,0.98
2023-03-31T08:20:39.898Z,1.58
2023-03-31T08:23:09.041Z,1.42
2023-03-31T08:25:35.530Z,1.42
2023-03-31T08:28:02.079Z,1.33
2023-03-31T08:30:28.473Z,1.38
2023-03-31T08:32:54.975Z,1.23
2023-03-31T08:35:21.416Z,1.60
2023-03-31T08:37:47.853Z,1.40
2023-03-31T08:40:18.969Z,1.20
2023-03-31T08:42:50.289Z,1.80
2023-03-31T08:45:26.307Z,1.33
2023-03-31T08:48:00.508Z,1.40
2023-03-31T08:50:30.913Z,1.08
2023-03-31T08:53:17.590Z,1.40
2023-03-31T08:55:49.221Z,1.13
2023-03-31T08:58:35.207Z,1.15
2023-03-31T09:01:26.091Z,1.77
2023-03-31T09:04:31.446Z,1.45
2023-03-31T09:07:30.815Z,1.25
2023-03-31T09:10:16.465Z,2.45
2023-03-31T09:13:12.245Z,1.70
2023-03-31T09:16:05.099Z,1.45
2023-03-31T09:18:37.486Z,1.60
2023-03-31T09:21:27.483Z,1.60
2023-03-31T09:24:15.386Z,1.38
2023-03-31T09:27:01.276Z,1.58
2023-03-31T09:29:42.041Z,1.60
2023-03-31T09:32:16.845Z,1.67
2023-03-31T09:34:44.525Z,1.95
2023-03-31T09:37:12.194Z,1.40
2023-03-31T09:39:40.573Z,1.50
2023-03-31T09:42:09.733Z,1.58
2023-03-31T09:44:51.863Z,1.60
2023-03-31T09:47:31.799Z,2.05
2023-03-31T09:49:58.300Z,1.67
2023-03-31T09:52:34.857Z,1.52
2023-03-31T09:55:05.510Z,1.20
2023-03-31T09:57:36.196Z,1.38
2023-03-31T10:00:13.861Z,1.35
2023-03-31T10:02:57.405Z,1.30
2023-03-31T10:05:38.366Z,1.98
2023-03-31T10:08:17.034Z,1.85
2023-03-31T10:10:47.201Z,2.20
2023-03-31T10:13:17.677Z,1.30
2023-03-31T10:15:44.638Z,1.02
2023-03-31T10:18:16.409Z,1.10
2023-03-31T10:20:52.924Z,1.20
2023-03-31T10:23:22.343Z,1.20
2023-03-31T10:25:49.653Z,1.50
2023-03-31T10:28:19.089Z,1.52
2023-03-31T10:30:57.910Z,1.63
2023-03-31T10:33:27.308Z,1.60
2023-03-31T10:35:59.602Z,1.30
2023-03-31T10:38:36.479Z,1.90
2023-03-31T10:41:03.698Z,1.85
2023-03-31T10:43:41.829Z,1.85
2023-03-31T10:46:09.489Z,1.83
2023-03-31T10:48:39.766Z,1.58
2023-03-31T10:51:26.452Z,2.00
2023-03-31T10:56:41.978Z,1.73
2023-03-31T10:59:12.380Z,1.50
2023-03-31T11:01:55.029Z,1.50
2023-03-31T11:05:01.905Z,1.23
2023-03-31T11:07:40.644Z,1.27
2023-03-31T11:10:40.873Z,1.50
2023-03-31T11:13:16.380Z,2.03
2023-03-31T11:15:56.800Z,1.70
2023-03-31T11:18:50.679Z,1.42
2023-03-31T11:21:29.305Z,1.45
2023-03-31T11:24:17.916Z,1.25
2023-03-31T11:26:59.387Z,0.88
2023-03-31T11:29:35.838Z,0.95
2023-03-31T11:32:39.912Z,0.90
2023-03-31T11:35:44.080Z,1.17
2023-03-31T11:38:25.875Z,0.90
2023-03-31T11:40:52.222Z,1.13
2023-03-31T11:43:25.308Z,1.27
2023-03-31T11:46:06.545Z,0.90
2023-03-31T11:48:43.858Z,0.95
2023-03-31T11:51:22.501Z,1.00
2023-03-31T11:53:52.104Z,1.20
2023-03-31T11:56:19.705Z,0.90
2023-03-31T11:58:56.544Z,1.15
2023-03-31T12:01:35.017Z,0.93
2023-03-31T12:04:23.797Z,1.70
2023-03-31T12:06:55.507Z,1.15
2023-03-31T12:09:37.980Z,0.90
2023-03-31T12:12:27.838Z,1.48
2023-03-31T12:15:16.670Z,1.80
2023-03-31T12:17:52.756Z,1.10
2023-03-31T12:20:29.321Z,1.25
2023-03-31T12:22:58.904Z,1.10
2023-03-31T12:25:30.879Z,0.60
2023-03-31T12:27:58.726Z,0.80
2023-03-31T12:30:34.801Z,0.90
2023-03-31T12:33:18.427Z,0.82
2023-03-31T12:35:56.849Z,1.30
2023-03-31T12:38:47.753Z,0.90
2023-03-31T12:42:00.392Z,0.70
2023-03-31T12:44:48.059Z,1.00
2023-03-31T12:47:37.901Z,0.70
2023-03-31T12:50:27.380Z,0.90
2023-03-31T12:53:19.357Z,1.20
2023-03-31T12:55:58.356Z,0.98
2023-03-31T12:58:24.929Z,1.13
2023-03-31T13:01:16.063Z,1.40
2023-03-31T13:03:53.332Z,0.98
2023-03-31T13:06:25.502Z,0.93
2023-03-31T13:09:05.870Z,1.17
2023-03-31T13:11:38.012Z,1.00
2023-03-31T13:14:06.923Z,1.33
2023-03-31T13:16:36.086Z,1.42
2023-03-31T13:19:02.978Z,1.60
2023-03-31T13:21:29.797Z,1.10
2023-03-31T13:24:01.383Z,1.20
2023-03-31T13:26:33.615Z,0.90
2023-03-31T13:29:19.561Z,1.20
2023-03-31T13:32:01.347Z,1.25
2023-03-31T13:34:35.861Z,1.33
2023-03-31T13:37:44.875Z,1.33
2023-03-31T13:40:39.548Z,0.80
2023-03-31T13:43:43.739Z,1.00
2023-03-31T13:46:22.615Z,0.98
2023-03-31T13:49:08.159Z,1.20
2023-03-31T13:51:58.557Z,0.93
2023-03-31T13:55:03.150Z,2.00
2023-03-31T13:57:38.645Z,1.20
2023-03-31T14:00:24.676Z,0.90
2023-03-31T14:03:28.670Z,1.83
2023-03-31T14:06:05.248Z,0.90
2023-03-31T14:08:55.502Z,0.68
2023-03-31T14:11:30.903Z,0.80
2023-03-31T14:14:05.195Z,0.40
2023-03-31T14:16:36.804Z,0.40
2023-03-31T14:19:41.800Z,0.60
2023-03-31T14:22:19.329Z,1.10
2023-03-31T14:24:48.371Z,0.60
2023-03-31T14:27:33.673Z,0.30
2023-03-31T14:30:12.934Z,0.40
2023-03-31T14:33:13.364Z,0.40
2023-03-31T14:35:53.124Z,0.70
2023-03-31T14:38:21.429Z,0.30
2023-03-31T14:40:51.044Z,0.50
2023-03-31T14:43:24.296Z,0.60
2023-03-31T14:45:58.964Z,1.00
2023-03-31T14:48:28.441Z,1.15
2023-03-31T14:50:59.137Z,1.02
2023-03-31T14:53:27.046Z,0.60
2023-03-31T14:56:01.743Z,0.90
2023-03-31T14:58:34.861Z,1.08
2023-03-31T15:01:04.387Z,1.08
2023-03-31T15:03:32.961Z,0.70
2023-03-31T15:06:01.292Z,0.65
2023-03-31T15:08:30.380Z,0.60
2023-03-31T15:11:11.970Z,0.80
2023-03-31T15:13:56.727Z,0.80
2023-03-31T15:16:44.256Z,0.50
2023-03-31T15:19:14.951Z,0.70
2023-03-31T15:21:41.557Z,0.80
2023-03-31T15:24:14.444Z,1.65
2023-03-31T15:26:48.284Z,0.90
2023-03-31T15:29:21.332Z,1.33
2023-03-31T15:31:48.322Z,0.95
2023-03-31T15:34:21.701Z,1.10
2023-03-31T15:36:49.239Z,1.00
2023-03-31T15:39:15.856Z,0.90
2023-03-31T15:41:42.906Z,1.00
2023-03-31T15:44:30.016Z,1.00
2023-03-31T15:47:06.315Z,1.00
2023-03-31T15:52:01.241Z,0.95
2023-03-31T15:54:32.900Z,1.05
2023-03-31T15:57:01.676Z,0.82
2023-03-31T16:02:23.529Z,1.02
2023-03-31T16:04:54.380Z,0.77
2023-03-31T16:07:24.619Z,0.80
2023-03-31T16:10:00.196Z,0.70
2023-03-31T16:12:35.719Z,0.68
2023-03-31T16:13:34.505Z,1.05
2023-03-31T16:15:09.471Z,0.75
2023-03-31T16:17:45.986Z,0.60
2023-03-31T16:20:32.961Z,0.80
2023-03-31T16:23:00.241Z,0.85
2023-03-31T16:25:29.737Z,1.02
2023-03-31T16:27:59.936Z,0.90
2023-03-31T16:30:41.259Z,0.70
2023-03-31T16:33:10.404Z,0.80
2023-03-31T16:35:45.218Z,0.80
2023-03-31T16:38:13.009Z,0.70
2023-03-31T16:40:42.255Z,1.05
2023-03-31T16:43:16.808Z,0.80
2023-03-31T16:45:46.874Z,0.68
2023-03-31T16:48:16.749Z,0.95
2023-03-31T16:50:48.522Z,0.70
2023-03-31T16:53:18.821Z,0.60
2023-03-31T16:55:45.650Z,0.70
2023-03-31T16:58:12.496Z,0.80
2023-03-31T17:00:40.505Z,0.95
2023-03-31T17:03:08.768Z,0.73
2023-03-31T17:05:41.165Z,1.13
2023-03-31T17:08:08.534Z,0.98
2023-03-31T17:10:35.338Z,1.00
2023-03-31T17:13:02.083Z,0.73
2023-03-31T17:15:31.544Z,0.93
2023-03-31T17:17:59.239Z,1.90
2023-03-31T17:20:26.406Z,0.90
2023-03-31T17:22:54.033Z,1.10
2023-03-31T17:25:21.383Z,0.90
2023-03-31T17:27:48.610Z,1.48
2023-03-31T17:30:15.722Z,1.63
2023-03-31T17:32:42.498Z,1.33
2023-03-31T17:35:10.329Z,1.13
2023-03-31T17:37:37.688Z,1.08
2023-03-31T17:40:05.967Z,0.93
2023-03-31T17:42:32.390Z,1.08
2023-03-31T17:44:59.048Z,1.00
2023-03-31T17:47:25.480Z,0.95
2023-03-31T17:49:52.107Z,1.00
2023-03-31T17:52:18.621Z,0.80
2023-03-31T17:54:45.108Z,1.70
2023-03-31T17:57:11.583Z,0.98
2023-03-31T17:59:39.086Z,0.88
2023-03-31T18:02:05.808Z,1.15
2023-03-31T18:04:32.418Z,1.13
2023-03-31T18:06:58.908Z,1.40
2023-03-31T18:09:25.462Z,0.70
2023-03-31T18:11:51.947Z,0.90
2023-03-31T18:14:18.518Z,1.00
2023-03-31T18:16:45.863Z,1.00
2023-03-31T18:19:12.350Z,1.33
2023-03-31T18:21:38.847Z,1.63
2023-03-31T18:24:05.492Z,0.93
2023-03-31T18:26:32.219Z,1.88
2023-03-31T18:28:59.186Z,1.92
2023-03-31T18:31:27.258Z,2.55
2023-03-31T18:33:54.770Z,1.25
2023-03-31T18:36:23.262Z,1.15
2023-03-31T18:38:50.639Z,1.02
2023-03-31T18:41:17.767Z,1.10
2023-03-31T18:43:44.533Z,0.90
2023-03-31T18:46:11.771Z,0.93
2023-03-31T18:48:39.158Z,1.00
2023-03-31T18:51:05.641Z,1.10
2023-03-31T18:53:32.182Z,0.90
2023-03-31T18:55:59.636Z,0.75
2023-03-31T18:58:28.787Z,1.20
2023-03-31T19:00:56.490Z,1.00
2023-03-31T19:03:23.602Z,1.10
2023-03-31T19:05:50.239Z,0.95
2023-03-31T19:08:16.648Z,1.50
2023-03-31T19:10:43.562Z,1.17
2023-03-31T19:13:15.697Z,0.75
2023-03-31T19:15:42.295Z,1.10
2023-03-31T19:18:13.612Z,1.30
2023-03-31T19:20:40.154Z,1.40
2023-03-31T19:23:06.587Z,0.90
2023-03-31T19:25:33.013Z,1.15
2023-03-31T19:27:59.446Z,1.15
2023-03-31T19:30:25.921Z,0.90
2023-03-31T19:32:52.368Z,1.15
2023-03-31T19:35:19.927Z,1.30
2023-03-31T19:37:47.364Z,1.13
2023-03-31T19:40:14.415Z,2.22
2023-03-31T19:42:42.120Z,1.00
2023-03-31T19:45:09.148Z,1.02
2023-03-31T19:47:35.740Z,1.00
2023-03-31T19:50:02.303Z,1.00
2023-03-31T19:52:29.409Z,0.98
2023-03-31T19:54:55.952Z,1.00
2023-03-31T19:57:22.469Z,0.98
2023-03-31T19:59:48.911Z,0.98
2023-03-31T20:02:15.486Z,1.35
2023-03-31T20:04:42.647Z,0.90
2023-03-31T20:07:09.211Z,1.40
2023-03-31T20:09:35.752Z,1.17
2023-03-31T20:12:02.363Z,0.50
2023-03-31T20:14:29.456Z,0.80
2023-03-31T20:16:56.082Z,1.00
2023-03-31T20:19:23.230Z,1.33
2023-03-31T20:21:57.631Z,1.05
2023-03-31T20:24:24.692Z,1.10
2023-03-31T20:26:51.799Z,1.23
2023-03-31T20:29:18.313Z,1.20
2023-03-31T20:31:44.873Z,0.85
2023-03-31T20:34:16.753Z,0.90
2023-03-31T20:36:45.681Z,1.10
2023-03-31T20:39:14.195Z,1.05
2023-03-31T20:41:41.040Z,0.60
2023-03-31T20:44:12.654Z,0.63
2023-03-31T20:46:42.237Z,0.57
2023-03-31T20:49:08.998Z,0.50
2023-03-31T20:51:39.887Z,0.50
2023-03-31T20:54:08.000Z,0.60
2023-03-31T20:56:40.374Z,0.60
2023-03-31T20:59:12.461Z,0.60
2023-03-31T21:01:39.234Z,0.50
2023-03-31T21:04:07.239Z,0.43
2023-03-31T21:06:42.455Z,0.40
2023-03-31T21:09:09.610Z,0.50
2023-03-31T21:11:36.089Z,0.52
2023-03-31T21:14:03.111Z,0.60
2023-03-31T21:16:29.637Z,0.60
2023-03-31T21:18:56.941Z,0.50
2023-03-31T21:21:24.913Z,0.75
2023-03-31T21:23:51.603Z,0.57
2023-03-31T21:26:18.062Z,0.60
2023-03-31T21:28:45.398Z,1.02
2023-03-31T21:31:17.904Z,0.77
2023-03-31T21:33:45.999Z,0.50
2023-03-31T21:36:14.980Z,0.73
2023-03-31T21:38:41.889Z,0.77
2023-03-31T21:41:11.272Z,0.90
2023-03-31T21:43:37.901Z,0.80
2023-03-31T21:46:05.124Z,0.70
2023-03-31T21:48:31.809Z,0.80
2023-03-31T21:51:00.626Z,1.27
2023-03-31T21:53:28.670Z,0.80
2023-03-31T21:55:56.244Z,1.15
2023-03-31T21:58:28.643Z,1.00
2023-03-31T22:00:57.488Z,0.80
2023-03-31T22:03:27.506Z,1.20
2023-03-31T22:05:55.979Z,0.82
2023-03-31T22:08:22.887Z,1.15
2023-03-31T22:10:50.788Z,0.93
2023-03-31T22:13:17.826Z,0.90
2023-03-31T22:15:44.683Z,0.80
2023-03-31T22:18:11.828Z,1.10
2023-03-31T22:20:38.750Z,1.20
2023-03-31T22:23:05.658Z,1.00
2023-03-31T22:25:32.533Z,0.90
2023-03-31T22:27:59.612Z,0.70
2023-03-31T22:30:26.096Z,0.85
2023-03-31T22:32:53.022Z,0.50
2023-03-31T22:35:19.457Z,0.60
2023-03-31T22:37:46.048Z,0.60
2023-03-31T22:40:12.615Z,0.55
2023-03-31T22:42:39.226Z,0.80
2023-03-31T22:45:06.439Z,0.40
2023-03-31T22:47:32.909Z,0.63
2023-03-31T22:49:59.350Z,0.57
2023-03-31T22:52:25.853Z,0.60
2023-03-31T22:54:52.254Z,0.55
2023-03-31T22:57:19.032Z,0.57
2023-03-31T22:59:45.573Z,0.50
2023-03-31T23:02:12.036Z,0.60
2023-03-31T23:04:38.489Z,0.68
2023-03-31T23:07:04.974Z,1.10
2023-03-31T23:09:31.854Z,0.63
2023-03-31T23:11:58.255Z,1.00
2023-03-31T23:14:24.909Z,0.68
2023-03-31T23:16:51.855Z,0.80
2023-03-31T23:19:18.465Z,0.82
2023-03-31T23:21:44.985Z,0.70
2023-03-31T23:24:11.595Z,0.60
2023-03-31T23:26:38.244Z,0.65
2023-03-31T23:29:04.876Z,0.80
2023-03-31T23:31:33.178Z,0.60
2023-03-31T23:34:00.364Z,0.75
2023-03-31T23:36:27.786Z,0.60
2023-03-31T23:38:55.696Z,0.50
2023-03-31T23:41:23.933Z,0.60
2023-03-31T23:43:53.168Z,0.50
2023-03-31T23:46:19.772Z,0.40
2023-03-31T23:48:46.220Z,0.63
2023-03-31T23:51:13.263Z,0.60
2023-03-31T23:53:40.046Z,0.50
2023-03-31T23:56:12.373Z,0.82
2023-03-31T23:58:40.136Z,0.50
